Fykan — LLDJ — position and weather

sailwx.info

Track history (hours):
 
Tides and Currents Weather Stations Pressure Air Temp Water Temp Dewpoint Dewpoint Depression Visibility Wind Speed Wind Dir Waves Ship Positions

Fykan

Last reported at 2016-Apr-29 10:30 UTC. Time now 2016-Apr-29 12:03 UTC.
Position N 66°34' E 012°50'.

Length 52 m; draft 3.3 m.

Type: Ship. MMSI: 259681000.

Date/timePositionNaut miles runAvg speedWind from/ knotsBaromVisibWave heightAir tempDewpointWater temp
2016-Apr-29 10:30N 66°34' E 012°50'5 5.2
2016-Apr-29 09:31N 66°37' E 012°59'0 0.0
2016-Apr-29 05:31N 66°37' E 012°59'6 5.4
2016-Apr-29 04:27N 66°34' E 012°48'0 0.0
2016-Apr-28 18:30N 66°34' E 012°49'5 4.0
2016-Apr-28 17:09N 66°37' E 012°59'1 0.4
2016-Apr-28 14:32N 66°36' E 012°59'5 5.3
2016-Apr-28 13:33N 66°34' E 012°47'3 0.9
2016-Apr-28 10:31N 66°34' E 012°54'3 0.7
2016-Apr-28 06:21N 66°36' E 012°59'5 5.5
2016-Apr-28 05:30N 66°34' E 012°49'2 0.2
2016-Apr-27 20:26N 66°34' E 012°54'3 0.5
2016-Apr-27 14:33N 66°36' E 012°59'5 5.2
2016-Apr-27 13:33N 66°34' E 012°47'1 0.3
2016-Apr-27 10:25N 66°34' E 012°49'5 1.2
2016-Apr-27 06:22N 66°36' E 012°59'5 5.7
2016-Apr-27 05:32N 66°34' E 012°49'3 0.3
2016-Apr-26 20:33N 66°36' E 012°49'3 0.8
2016-Apr-26 16:29N 66°34' E 012°54'2 0.3
2016-Apr-26 10:32N 66°34' E 012°49'6 5.1
2016-Apr-26 09:27N 66°37' E 012°59'0 0.0
2016-Apr-26 05:30N 66°37' E 012°59'6 5.3
2016-Apr-26 04:25N 66°34' E 012°48'3 0.3
2016-Apr-25 18:17N 66°35' E 012°42'7 1.7
2016-Apr-25 14:23N 66°36' E 012°59'5 6.0
2016-Apr-25 13:33N 66°34' E 012°48'3 1.0
2016-Apr-25 10:33N 66°34' E 012°55'3 0.7
2016-Apr-25 06:20N 66°36' E 012°59'5 5.6
2016-Apr-25 05:29N 66°34' E 012°49'3 0.3
2016-Apr-24 20:31N 66°36' E 012°50'3 0.7
2016-Apr-24 15:18N 66°36' E 012°59'4 5.5
2016-Apr-24 14:32N 66°34' E 012°50'5 0.2
2016-Apr-23 16:12N 66°37' E 012°59'1 0.1
2016-Apr-23 07:33N 66°36' E 012°59'0 0.1
2016-Apr-23 06:19N 66°36' E 012°59'5 0.3
2016-Apr-22 16:12N 66°34' E 012°48'1 0.1
2016-Apr-22 10:26N 66°34' E 012°50'5 5.0
2016-Apr-22 09:23N 66°37' E 012°59'0 0.0
2016-Apr-22 05:26N 66°37' E 012°59'6 5.6
2016-Apr-22 04:25N 66°34' E 012°48'5 0.5
2016-Apr-21 17:09N 66°37' E 012°59'1 0.4
2016-Apr-21 14:26N 66°36' E 012°59'5 5.9
2016-Apr-21 13:33N 66°34' E 012°47'3 0.9
2016-Apr-21 10:23N 66°34' E 012°54'3 0.7
2016-Apr-21 06:19N 66°36' E 012°59'5 5.7
2016-Apr-21 05:29N 66°34' E 012°49'3 0.3
2016-Apr-20 20:33N 66°36' E 012°52'3 0.5
2016-Apr-20 14:25N 66°36' E 012°59'5 5.8
2016-Apr-20 13:33N 66°34' E 012°47'1 0.3
2016-Apr-20 10:29N 66°34' E 012°46'5 5.7
2016-Apr-20 09:33N 66°35' E 012°59'1 0.3
2016-Apr-20 06:22N 66°36' E 012°59'5 5.2
2016-Apr-20 05:27N 66°34' E 012°48'3 0.3
2016-Apr-19 20:32N 66°36' E 012°51'3 1.1
2016-Apr-19 17:25N 66°37' E 012°59'4 4.8
2016-Apr-19 16:33N 66°34' E 012°53'  
Track history (hours):
 
Tides and Currents Weather Stations Pressure Air Temp Water Temp Dewpoint Dewpoint Depression Visibility Wind Speed Wind Dir Waves Ship Positions

Fykan

Last reported at 2016-Apr-29 10:30 UTC. Time now 2016-Apr-29 12:03 UTC.
Position N 66°34' E 012°50'.

Length 52 m; draft 3.3 m.

Type: Ship. MMSI: 259681000.

Date/timePositionNaut miles runAvg speedWind from/ knotsBaromVisibWave heightAir tempDewpointWater temp
2016-Apr-29 10:30N 66°34' E 012°50'5 5.2
2016-Apr-29 09:31N 66°37' E 012°59'0 0.0
2016-Apr-29 05:31N 66°37' E 012°59'6 5.4
2016-Apr-29 04:27N 66°34' E 012°48'0 0.0
2016-Apr-28 18:30N 66°34' E 012°49'5 4.0
2016-Apr-28 17:09N 66°37' E 012°59'1 0.4
2016-Apr-28 14:32N 66°36' E 012°59'5 5.3
2016-Apr-28 13:33N 66°34' E 012°47'3 0.9
2016-Apr-28 10:31N 66°34' E 012°54'3 0.7
2016-Apr-28 06:21N 66°36' E 012°59'5 5.5
2016-Apr-28 05:30N 66°34' E 012°49'2 0.2
2016-Apr-27 20:26N 66°34' E 012°54'3 0.5
2016-Apr-27 14:33N 66°36' E 012°59'5 5.2
2016-Apr-27 13:33N 66°34' E 012°47'1 0.3
2016-Apr-27 10:25N 66°34' E 012°49'5 1.2
2016-Apr-27 06:22N 66°36' E 012°59'5 5.7
2016-Apr-27 05:32N 66°34' E 012°49'3 0.3
2016-Apr-26 20:33N 66°36' E 012°49'3 0.8
2016-Apr-26 16:29N 66°34' E 012°54'2 0.3
2016-Apr-26 10:32N 66°34' E 012°49'6 5.1
2016-Apr-26 09:27N 66°37' E 012°59'0 0.0
2016-Apr-26 05:30N 66°37' E 012°59'6 5.3
2016-Apr-26 04:25N 66°34' E 012°48'3 0.3
2016-Apr-25 18:17N 66°35' E 012°42'7 1.7
2016-Apr-25 14:23N 66°36' E 012°59'5 6.0
2016-Apr-25 13:33N 66°34' E 012°48'3 1.0
2016-Apr-25 10:33N 66°34' E 012°55'3 0.7
2016-Apr-25 06:20N 66°36' E 012°59'5 5.6
2016-Apr-25 05:29N 66°34' E 012°49'3 0.3
2016-Apr-24 20:31N 66°36' E 012°50'3 0.7
2016-Apr-24 15:18N 66°36' E 012°59'4 5.5
2016-Apr-24 14:32N 66°34' E 012°50'5 0.2
2016-Apr-23 16:12N 66°37' E 012°59'1 0.1
2016-Apr-23 07:33N 66°36' E 012°59'0 0.1
2016-Apr-23 06:19N 66°36' E 012°59'5 0.3
2016-Apr-22 16:12N 66°34' E 012°48'1 0.1
2016-Apr-22 10:26N 66°34' E 012°50'5 5.0
2016-Apr-22 09:23N 66°37' E 012°59'0 0.0
2016-Apr-22 05:26N 66°37' E 012°59'6 5.6
2016-Apr-22 04:25N 66°34' E 012°48'5 0.5
2016-Apr-21 17:09N 66°37' E 012°59'1 0.4
2016-Apr-21 14:26N 66°36' E 012°59'5 5.9
2016-Apr-21 13:33N 66°34' E 012°47'3 0.9
2016-Apr-21 10:23N 66°34' E 012°54'3 0.7
2016-Apr-21 06:19N 66°36' E 012°59'5 5.7
2016-Apr-21 05:29N 66°34' E 012°49'3 0.3
2016-Apr-20 20:33N 66°36' E 012°52'3 0.5
2016-Apr-20 14:25N 66°36' E 012°59'5 5.8
2016-Apr-20 13:33N 66°34' E 012°47'1 0.3
2016-Apr-20 10:29N 66°34' E 012°46'5 5.7
2016-Apr-20 09:33N 66°35' E 012°59'1 0.3
2016-Apr-20 06:22N 66°36' E 012°59'5 5.2
2016-Apr-20 05:27N 66°34' E 012°48'3 0.3
2016-Apr-19 20:32N 66°36' E 012°51'3 1.1
2016-Apr-19 17:25N 66°37' E 012°59'4 4.8
2016-Apr-19 16:33N 66°34' E 012°53'  

Dump ship's entire track history